sensor_id;sensor_type;location;lat;lon;timestamp;pressure;altitude;pressure_sealevel;temperature;humidity
57250;BME280;43102;52.014;-0.680;2023-04-23T00:00:00;99241;;;12.11;66.23
57250;BME280;43102;52.014;-0.680;2023-04-23T00:01:00;99241;;;12.11;66.23
57250;BME280;43102;52.014;-0.680;2023-04-23T00:02:00;99236;;;12.08;66.90
57250;BME280;43102;52.014;-0.680;2023-04-23T00:03:00;99236;;;12.08;66.90
57250;BME280;43102;52.014;-0.680;2023-04-23T00:04:00;99236;;;12.08;66.90
57250;BME280;43102;52.014;-0.680;2023-04-23T00:05:01;99236;;;12.08;66.90
57250;BME280;43102;52.014;-0.680;2023-04-23T00:06:03;99236;;;12.08;66.90
57250;BME280;43102;52.014;-0.680;2023-04-23T00:07:01;99236;;;12.10;67.33
57250;BME280;43102;52.014;-0.680;2023-04-23T00:08:00;99236;;;12.10;67.33
57250;BME280;43102;52.014;-0.680;2023-04-23T00:09:00;99236;;;12.10;67.33
57250;BME280;43102;52.014;-0.680;2023-04-23T00:10:00;99236;;;12.10;67.33
57250;BME280;43102;52.014;-0.680;2023-04-23T00:11:00;99236;;;12.10;67.33
57250;BME280;43102;52.014;-0.680;2023-04-23T00:12:00;99232;;;12.11;67.31
57250;BME280;43102;52.014;-0.680;2023-04-23T00:13:00;99232;;;12.11;67.31
57250;BME280;43102;52.014;-0.680;2023-04-23T00:14:00;99232;;;12.11;67.31
57250;BME280;43102;52.014;-0.680;2023-04-23T00:15:00;99232;;;12.11;67.31
57250;BME280;43102;52.014;-0.680;2023-04-23T00:16:00;99232;;;12.11;67.31
57250;BME280;43102;52.014;-0.680;2023-04-23T00:17:00;99228;;;12.11;68.09
57250;BME280;43102;52.014;-0.680;2023-04-23T00:18:00;99228;;;12.11;68.09
57250;BME280;43102;52.014;-0.680;2023-04-23T00:19:00;99228;;;12.11;68.09
57250;BME280;43102;52.014;-0.680;2023-04-23T00:20:00;99228;;;12.11;68.09
57250;BME280;43102;52.014;-0.680;2023-04-23T00:21:00;99228;;;12.11;68.09
57250;BME280;43102;52.014;-0.680;2023-04-23T00:22:00;99228;;;12.15;68.70
57250;BME280;43102;52.014;-0.680;2023-04-23T00:23:00;99228;;;12.15;68.70
57250;BME280;43102;52.014;-0.680;2023-04-23T00:24:00;99228;;;12.15;68.70
57250;BME280;43102;52.014;-0.680;2023-04-23T00:25:00;99228;;;12.15;68.70
57250;BME280;43102;52.014;-0.680;2023-04-23T00:26:00;99228;;;12.15;68.70
57250;BME280;43102;52.014;-0.680;2023-04-23T00:27:00;99218;;;12.12;69.26
57250;BME280;43102;52.014;-0.680;2023-04-23T00:28:00;99218;;;12.12;69.26
57250;BME280;43102;52.014;-0.680;2023-04-23T00:29:00;99218;;;12.12;69.26
57250;BME280;43102;52.014;-0.680;2023-04-23T00:30:00;99218;;;12.12;69.26
57250;BME280;43102;52.014;-0.680;2023-04-23T00:31:00;99218;;;12.12;69.26
57250;BME280;43102;52.014;-0.680;2023-04-23T00:32:00;99210;;;12.12;69.31
57250;BME280;43102;52.014;-0.680;2023-04-23T00:33:00;99210;;;12.12;69.31
57250;BME280;43102;52.014;-0.680;2023-04-23T00:34:00;99210;;;12.12;69.31
57250;BME280;43102;52.014;-0.680;2023-04-23T00:35:00;99210;;;12.12;69.31
57250;BME280;43102;52.014;-0.680;2023-04-23T00:36:00;99210;;;12.12;69.31
57250;BME280;43102;52.014;-0.680;2023-04-23T00:37:00;99204;;;12.13;69.45
57250;BME280;43102;52.014;-0.680;2023-04-23T00:38:00;99204;;;12.13;69.45
57250;BME280;43102;52.014;-0.680;2023-04-23T00:39:00;99204;;;12.13;69.45
57250;BME280;43102;52.014;-0.680;2023-04-23T00:40:00;99204;;;12.13;69.45
57250;BME280;43102;52.014;-0.680;2023-04-23T00:41:00;99204;;;12.13;69.45
57250;BME280;43102;52.014;-0.680;2023-04-23T00:42:00;99201;;;12.08;70.23
57250;BME280;43102;52.014;-0.680;2023-04-23T00:43:00;99201;;;12.08;70.23
57250;BME280;43102;52.014;-0.680;2023-04-23T00:44:00;99201;;;12.08;70.23
57250;BME280;43102;52.014;-0.680;2023-04-23T00:45:00;99201;;;12.08;70.23
57250;BME280;43102;52.014;-0.680;2023-04-23T00:46:00;99201;;;12.08;70.23
57250;BME280;43102;52.014;-0.680;2023-04-23T00:47:00;99207;;;12.03;72.04
57250;BME280;43102;52.014;-0.680;2023-04-23T00:48:01;99207;;;12.03;72.04
57250;BME280;43102;52.014;-0.680;2023-04-23T00:49:00;99207;;;12.03;72.04
57250;BME280;43102;52.014;-0.680;2023-04-23T00:50:00;99207;;;12.03;72.04
57250;BME280;43102;52.014;-0.680;2023-04-23T00:51:03;99207;;;12.03;72.04
57250;BME280;43102;52.014;-0.680;2023-04-23T00:52:00;99198;;;12.09;71.74
57250;BME280;43102;52.014;-0.680;2023-04-23T00:53:00;99198;;;12.09;71.74
57250;BME280;43102;52.014;-0.680;2023-04-23T00:54:00;99198;;;12.09;71.74
57250;BME280;43102;52.014;-0.680;2023-04-23T00:55:00;99198;;;12.09;71.74
57250;BME280;43102;52.014;-0.680;2023-04-23T00:56:00;99198;;;12.09;71.74
57250;BME280;43102;52.014;-0.680;2023-04-23T00:57:00;99188;;;12.14;71.61
57250;BME280;43102;52.014;-0.680;2023-04-23T00:58:00;99188;;;12.14;71.61
57250;BME280;43102;52.014;-0.680;2023-04-23T00:59:00;99188;;;12.14;71.61
57250;BME280;43102;52.014;-0.680;2023-04-23T01:00:00;99188;;;12.14;71.61
57250;BME280;43102;52.014;-0.680;2023-04-23T01:01:00;99188;;;12.14;71.61
57250;BME280;43102;52.014;-0.680;2023-04-23T01:02:00;99175;;;12.12;72.03
57250;BME280;43102;52.014;-0.680;2023-04-23T01:03:00;99175;;;12.12;72.03
57250;BME280;43102;52.014;-0.680;2023-04-23T01:04:00;99175;;;12.12;72.03
57250;BME280;43102;52.014;-0.680;2023-04-23T01:05:00;99175;;;12.12;72.03
57250;BME280;43102;52.014;-0.680;2023-04-23T01:06:00;99175;;;12.12;72.03
57250;BME280;43102;52.014;-0.680;2023-04-23T01:07:00;99173;;;12.18;71.94
57250;BME280;43102;52.014;-0.680;2023-04-23T01:08:00;99173;;;12.18;71.94
57250;BME280;43102;52.014;-0.680;2023-04-23T01:09:00;99173;;;12.18;71.94
57250;BME280;43102;52.014;-0.680;2023-04-23T01:10:00;99173;;;12.18;71.94
57250;BME280;43102;52.014;-0.680;2023-04-23T01:11:00;99173;;;12.18;71.94
57250;BME280;43102;52.014;-0.680;2023-04-23T01:12:00;99168;;;12.17;72.03
57250;BME280;43102;52.014;-0.680;2023-04-23T01:13:00;99168;;;12.17;72.03
57250;BME280;43102;52.014;-0.680;2023-04-23T01:14:00;99168;;;12.17;72.03
57250;BME280;43102;52.014;-0.680;2023-04-23T01:15:00;99168;;;12.17;72.03
57250;BME280;43102;52.014;-0.680;2023-04-23T01:16:00;99168;;;12.17;72.03
57250;BME280;43102;52.014;-0.680;2023-04-23T01:17:00;99158;;;12.19;71.92
57250;BME280;43102;52.014;-0.680;2023-04-23T01:18:00;99158;;;12.19;71.92
57250;BME280;43102;52.014;-0.680;2023-04-23T01:19:00;99158;;;12.19;71.92
57250;BME280;43102;52.014;-0.680;2023-04-23T01:20:00;99158;;;12.19;71.92
57250;BME280;43102;52.014;-0.680;2023-04-23T01:21:00;99158;;;12.19;71.92
57250;BME280;43102;52.014;-0.680;2023-04-23T01:22:00;99153;;;12.14;72.57
57250;BME280;43102;52.014;-0.680;2023-04-23T01:23:01;99153;;;12.14;72.57
57250;BME280;43102;52.014;-0.680;2023-04-23T01:24:01;99153;;;12.14;72.57
57250;BME280;43102;52.014;-0.680;2023-04-23T01:25:00;99153;;;12.14;72.57
57250;BME280;43102;52.014;-0.680;2023-04-23T01:26:00;99153;;;12.14;72.57
57250;BME280;43102;52.014;-0.680;2023-04-23T01:27:00;99150;;;12.18;72.36
57250;BME280;43102;52.014;-0.680;2023-04-23T01:28:00;99150;;;12.18;72.36
57250;BME280;43102;52.014;-0.680;2023-04-23T01:29:00;99150;;;12.18;72.36
57250;BME280;43102;52.014;-0.680;2023-04-23T01:30:03;99150;;;12.18;72.36
57250;BME280;43102;52.014;-0.680;2023-04-23T01:31:00;99150;;;12.18;72.36
57250;BME280;43102;52.014;-0.680;2023-04-23T01:32:00;99151;;;12.20;72.20
57250;BME280;43102;52.014;-0.680;2023-04-23T01:33:00;99151;;;12.20;72.20
57250;BME280;43102;52.014;-0.680;2023-04-23T01:34:00;99151;;;12.20;72.20
57250;BME280;43102;52.014;-0.680;2023-04-23T01:35:00;99151;;;12.20;72.20
57250;BME280;43102;52.014;-0.680;2023-04-23T01:36:00;99151;;;12.20;72.20
57250;BME280;43102;52.014;-0.680;2023-04-23T01:37:01;99151;;;12.20;72.58
57250;BME280;43102;52.014;-0.680;2023-04-23T01:38:00;99151;;;12.20;72.58
57250;BME280;43102;52.014;-0.680;2023-04-23T01:39:00;99151;;;12.20;72.58
57250;BME280;43102;52.014;-0.680;2023-04-23T01:40:00;99151;;;12.20;72.58
57250;BME280;43102;52.014;-0.680;2023-04-23T01:41:00;99151;;;12.20;72.58
57250;BME280;43102;52.014;-0.680;2023-04-23T01:42:00;99146;;;12.25;72.07
57250;BME280;43102;52.014;-0.680;2023-04-23T01:43:00;99146;;;12.25;72.07
57250;BME280;43102;52.014;-0.680;2023-04-23T01:44:00;99146;;;12.25;72.07
57250;BME280;43102;52.014;-0.680;2023-04-23T01:45:01;99146;;;12.25;72.07
57250;BME280;43102;52.014;-0.680;2023-04-23T01:46:00;99146;;;12.25;72.07
57250;BME280;43102;52.014;-0.680;2023-04-23T01:47:00;99144;;;12.26;72.49
57250;BME280;43102;52.014;-0.680;2023-04-23T01:48:00;99144;;;12.26;72.49
57250;BME280;43102;52.014;-0.680;2023-04-23T01:49:00;99144;;;12.26;72.49
57250;BME280;43102;52.014;-0.680;2023-04-23T01:50:00;99144;;;12.26;72.49
57250;BME280;43102;52.014;-0.680;2023-04-23T01:51:00;99144;;;12.26;72.49
57250;BME280;43102;52.014;-0.680;2023-04-23T01:52:00;99137;;;12.28;73.08
57250;BME280;43102;52.014;-0.680;2023-04-23T01:53:00;99137;;;12.28;73.08
57250;BME280;43102;52.014;-0.680;2023-04-23T01:54:00;99137;;;12.28;73.08
57250;BME280;43102;52.014;-0.680;2023-04-23T01:55:00;99137;;;12.28;73.08
57250;BME280;43102;52.014;-0.680;2023-04-23T01:56:00;99137;;;12.28;73.08
57250;BME280;43102;52.014;-0.680;2023-04-23T01:57:00;99132;;;12.29;72.85
57250;BME280;43102;52.014;-0.680;2023-04-23T01:58:00;99132;;;12.29;72.85
57250;BME280;43102;52.014;-0.680;2023-04-23T01:59:00;99132;;;12.29;72.85
57250;BME280;43102;52.014;-0.680;2023-04-23T02:00:08;99132;;;12.29;72.85
57250;BME280;43102;52.014;-0.680;2023-04-23T02:01:00;99132;;;12.29;72.85
57250;BME280;43102;52.014;-0.680;2023-04-23T02:02:00;99128;;;12.29;72.74
57250;BME280;43102;52.014;-0.680;2023-04-23T02:03:00;99128;;;12.29;72.74
57250;BME280;43102;52.014;-0.680;2023-04-23T02:04:00;99128;;;12.29;72.74
57250;BME280;43102;52.014;-0.680;2023-04-23T02:05:00;99128;;;12.29;72.74
57250;BME280;43102;52.014;-0.680;2023-04-23T02:06:00;99128;;;12.29;72.74
57250;BME280;43102;52.014;-0.680;2023-04-23T02:07:00;99120;;;12.33;73.56
57250;BME280;43102;52.014;-0.680;2023-04-23T02:08:00;99120;;;12.33;73.56
57250;BME280;43102;52.014;-0.680;2023-04-23T02:09:00;99120;;;12.33;73.56
57250;BME280;43102;52.014;-0.680;2023-04-23T02:10:00;99120;;;12.33;73.56
57250;BME280;43102;52.014;-0.680;2023-04-23T02:11:00;99120;;;12.33;73.56
57250;BME280;43102;52.014;-0.680;2023-04-23T02:12:00;99113;;;12.31;72.45
57250;BME280;43102;52.014;-0.680;2023-04-23T02:13:00;99113;;;12.31;72.45
57250;BME280;43102;52.014;-0.680;2023-04-23T02:14:00;99113;;;12.31;72.45
57250;BME280;43102;52.014;-0.680;2023-04-23T02:15:00;99113;;;12.31;72.45
57250;BME280;43102;52.014;-0.680;2023-04-23T02:16:00;99113;;;12.31;72.45
57250;BME280;43102;52.014;-0.680;2023-04-23T02:17:00;99116;;;12.33;72.62
57250;BME280;43102;52.014;-0.680;2023-04-23T02:18:00;99116;;;12.33;72.62
57250;BME280;43102;52.014;-0.680;2023-04-23T02:19:00;99116;;;12.33;72.62
57250;BME280;43102;52.014;-0.680;2023-04-23T02:20:00;99116;;;12.33;72.62
57250;BME280;43102;52.014;-0.680;2023-04-23T02:21:00;99116;;;12.33;72.62
57250;BME280;43102;52.014;-0.680;2023-04-23T02:22:00;99115;;;12.34;72.63
57250;BME280;43102;52.014;-0.680;2023-04-23T02:23:00;99115;;;12.34;72.63
57250;BME280;43102;52.014;-0.680;2023-04-23T02:24:00;99115;;;12.34;72.63
57250;BME280;43102;52.014;-0.680;2023-04-23T02:25:00;99115;;;12.34;72.63
57250;BME280;43102;52.014;-0.680;2023-04-23T02:26:00;99115;;;12.34;72.63
57250;BME280;43102;52.014;-0.680;2023-04-23T02:27:00;99114;;;12.33;72.04
57250;BME280;43102;52.014;-0.680;2023-04-23T02:28:00;99114;;;12.33;72.04
57250;BME280;43102;52.014;-0.680;2023-04-23T02:29:00;99114;;;12.33;72.04
57250;BME280;43102;52.014;-0.680;2023-04-23T02:30:00;99114;;;12.33;72.04
57250;BME280;43102;52.014;-0.680;2023-04-23T02:31:00;99114;;;12.33;72.04
57250;BME280;43102;52.014;-0.680;2023-04-23T02:32:00;99110;;;12.33;72.04
57250;BME280;43102;52.014;-0.680;2023-04-23T02:33:00;99110;;;12.33;72.04
57250;BME280;43102;52.014;-0.680;2023-04-23T02:34:00;99110;;;12.33;72.04
57250;BME280;43102;52.014;-0.680;2023-04-23T02:35:00;99110;;;12.33;72.04
57250;BME280;43102;52.014;-0.680;2023-04-23T02:36:00;99110;;;12.33;72.04
57250;BME280;43102;52.014;-0.680;2023-04-23T02:37:00;99112;;;12.35;72.06
57250;BME280;43102;52.014;-0.680;2023-04-23T02:38:00;99112;;;12.35;72.06
57250;BME280;43102;52.014;-0.680;2023-04-23T02:39:00;99112;;;12.35;72.06
57250;BME280;43102;52.014;-0.680;2023-04-23T02:40:00;99112;;;12.35;72.06
57250;BME280;43102;52.014;-0.680;2023-04-23T02:41:00;99112;;;12.35;72.06
57250;BME280;43102;52.014;-0.680;2023-04-23T02:42:00;99107;;;12.34;71.64
57250;BME280;43102;52.014;-0.680;2023-04-23T02:43:00;99107;;;12.34;71.64
57250;BME280;43102;52.014;-0.680;2023-04-23T02:44:00;99107;;;12.34;71.64
57250;BME280;43102;52.014;-0.680;2023-04-23T02:45:00;99107;;;12.34;71.64
57250;BME280;43102;52.014;-0.680;2023-04-23T02:46:01;99107;;;12.34;71.64
57250;BME280;43102;52.014;-0.680;2023-04-23T02:47:00;99098;;;12.30;72.08
57250;BME280;43102;52.014;-0.680;2023-04-23T02:48:00;99098;;;12.30;72.08
57250;BME280;43102;52.014;-0.680;2023-04-23T02:49:00;99098;;;12.30;72.08
57250;BME280;43102;52.014;-0.680;2023-04-23T02:50:00;99098;;;12.30;72.08
57250;BME280;43102;52.014;-0.680;2023-04-23T02:51:00;99098;;;12.30;72.08
57250;BME280;43102;52.014;-0.680;2023-04-23T02:52:00;99100;;;12.25;72.12
57250;BME280;43102;52.014;-0.680;2023-04-23T02:53:00;99100;;;12.25;72.12
57250;BME280;43102;52.014;-0.680;2023-04-23T02:54:00;99100;;;12.25;72.12
57250;BME280;43102;52.014;-0.680;2023-04-23T02:55:00;99100;;;12.25;72.12
57250;BME280;43102;52.014;-0.680;2023-04-23T02:56:00;99100;;;12.25;72.12
57250;BME280;43102;52.014;-0.680;2023-04-23T02:57:00;99097;;;12.32;72.06
57250;BME280;43102;52.014;-0.680;2023-04-23T02:58:00;99097;;;12.32;72.06
57250;BME280;43102;52.014;-0.680;2023-04-23T02:59:00;99097;;;12.32;72.06
57250;BME280;43102;52.014;-0.680;2023-04-23T03:00:00;99097;;;12.32;72.06
57250;BME280;43102;52.014;-0.680;2023-04-23T03:01:00;99097;;;12.32;72.06
57250;BME280;43102;52.014;-0.680;2023-04-23T03:02:00;99092;;;12.27;72.26
57250;BME280;43102;52.014;-0.680;2023-04-23T03:03:00;99092;;;12.27;72.26
57250;BME280;43102;52.014;-0.680;2023-04-23T03:04:00;99092;;;12.27;72.26
57250;BME280;43102;52.014;-0.680;2023-04-23T03:05:00;99092;;;12.27;72.26
57250;BME280;43102;52.014;-0.680;2023-04-23T03:06:00;99092;;;12.27;72.26
57250;BME280;43102;52.014;-0.680;2023-04-23T03:07:00;99091;;;12.32;71.04
57250;BME280;43102;52.014;-0.680;2023-04-23T03:08:00;99091;;;12.32;71.04
57250;BME280;43102;52.014;-0.680;2023-04-23T03:09:00;99091;;;12.32;71.04
57250;BME280;43102;52.014;-0.680;2023-04-23T03:10:00;99091;;;12.32;71.04
57250;BME280;43102;52.014;-0.680;2023-04-23T03:11:00;99091;;;12.32;71.04
57250;BME280;43102;52.014;-0.680;2023-04-23T03:12:00;99090;;;12.29;72.08
57250;BME280;43102;52.014;-0.680;2023-04-23T03:13:00;99090;;;12.29;72.08
57250;BME280;43102;52.014;-0.680;2023-04-23T03:14:00;99090;;;12.29;72.08
57250;BME280;43102;52.014;-0.680;2023-04-23T03:15:00;99090;;;12.29;72.08
57250;BME280;43102;52.014;-0.680;2023-04-23T03:16:00;99090;;;12.29;72.08
57250;BME280;43102;52.014;-0.680;2023-04-23T03:17:00;99093;;;12.26;71.21
57250;BME280;43102;52.014;-0.680;2023-04-23T03:18:00;99093;;;12.26;71.21
57250;BME280;43102;52.014;-0.680;2023-04-23T03:19:00;99093;;;12.26;71.21
57250;BME280;43102;52.014;-0.680;2023-04-23T03:20:00;99093;;;12.26;71.21
57250;BME280;43102;52.014;-0.680;2023-04-23T03:21:00;99093;;;12.26;71.21
57250;BME280;43102;52.014;-0.680;2023-04-23T03:22:00;99090;;;12.28;71.57
57250;BME280;43102;52.014;-0.680;2023-04-23T03:23:00;99090;;;12.28;71.57
57250;BME280;43102;52.014;-0.680;2023-04-23T03:24:00;99090;;;12.28;71.57
57250;BME280;43102;52.014;-0.680;2023-04-23T03:25:00;99090;;;12.28;71.57
57250;BME280;43102;52.014;-0.680;2023-04-23T03:26:00;99090;;;12.28;71.57
57250;BME280;43102;52.014;-0.680;2023-04-23T03:27:00;99097;;;12.31;71.17
57250;BME280;43102;52.014;-0.680;2023-04-23T03:28:00;99097;;;12.31;71.17
57250;BME280;43102;52.014;-0.680;2023-04-23T03:29:00;99097;;;12.31;71.17
57250;BME280;43102;52.014;-0.680;2023-04-23T03:30:00;99097;;;12.31;71.17
57250;BME280;43102;52.014;-0.680;2023-04-23T03:31:00;99097;;;12.31;71.17
57250;BME280;43102;52.014;-0.680;2023-04-23T03:32:00;99096;;;12.31;71.07
57250;BME280;43102;52.014;-0.680;2023-04-23T03:33:00;99096;;;12.31;71.07
57250;BME280;43102;52.014;-0.680;2023-04-23T03:34:00;99096;;;12.31;71.07
57250;BME280;43102;52.014;-0.680;2023-04-23T03:35:00;99096;;;12.31;71.07
57250;BME280;43102;52.014;-0.680;2023-04-23T03:36:00;99096;;;12.31;71.07
57250;BME280;43102;52.014;-0.680;2023-04-23T03:37:00;99095;;;12.29;70.82
57250;BME280;43102;52.014;-0.680;2023-04-23T03:38:00;99095;;;12.29;70.82
57250;BME280;43102;52.014;-0.680;2023-04-23T03:39:00;99095;;;12.29;70.82
57250;BME280;43102;52.014;-0.680;2023-04-23T03:40:00;99095;;;12.29;70.82
57250;BME280;43102;52.014;-0.680;2023-04-23T03:41:00;99095;;;12.29;70.82
57250;BME280;43102;52.014;-0.680;2023-04-23T03:42:00;99094;;;12.28;70.91
57250;BME280;43102;52.014;-0.680;2023-04-23T03:43:00;99094;;;12.28;70.91
57250;BME280;43102;52.014;-0.680;2023-04-23T03:44:00;99094;;;12.28;70.91
57250;BME280;43102;52.014;-0.680;2023-04-23T03:45:00;99094;;;12.28;70.91
57250;BME280;43102;52.014;-0.680;2023-04-23T03:46:00;99094;;;12.28;70.91
57250;BME280;43102;52.014;-0.680;2023-04-23T03:47:00;99097;;;12.30;71.12
57250;BME280;43102;52.014;-0.680;2023-04-23T03:48:00;99097;;;12.30;71.12
57250;BME280;43102;52.014;-0.680;2023-04-23T03:49:00;99097;;;12.30;71.12
57250;BME280;43102;52.014;-0.680;2023-04-23T03:50:00;99097;;;12.30;71.12
57250;BME280;43102;52.014;-0.680;2023-04-23T03:51:00;99097;;;12.30;71.12
57250;BME280;43102;52.014;-0.680;2023-04-23T03:52:00;99096;;;12.22;71.52
57250;BME280;43102;52.014;-0.680;2023-04-23T03:53:00;99096;;;12.22;71.52
57250;BME280;43102;52.014;-0.680;2023-04-23T03:54:00;99096;;;12.22;71.52
57250;BME280;43102;52.014;-0.680;2023-04-23T03:55:00;99096;;;12.22;71.52
57250;BME280;43102;52.014;-0.680;2023-04-23T03:56:00;99096;;;12.22;71.52
57250;BME280;43102;52.014;-0.680;2023-04-23T03:57:00;99095;;;12.21;72.02
57250;BME280;43102;52.014;-0.680;2023-04-23T03:58:01;99095;;;12.21;72.02
57250;BME280;43102;52.014;-0.680;2023-04-23T03:59:00;99095;;;12.21;72.02
57250;BME280;43102;52.014;-0.680;2023-04-23T04:00:00;99095;;;12.21;72.02
57250;BME280;43102;52.014;-0.680;2023-04-23T04:01:00;99095;;;12.21;72.02
57250;BME280;43102;52.014;-0.680;2023-04-23T04:02:00;99097;;;12.29;70.95
57250;BME280;43102;52.014;-0.680;2023-04-23T04:03:00;99097;;;12.29;70.95
57250;BME280;43102;52.014;-0.680;2023-04-23T04:04:00;99097;;;12.29;70.95
57250;BME280;43102;52.014;-0.680;2023-04-23T04:05:00;99097;;;12.29;70.95
57250;BME280;43102;52.014;-0.680;2023-04-23T04:06:00;99097;;;12.29;70.95
57250;BME280;43102;52.014;-0.680;2023-04-23T04:07:00;99095;;;12.21;70.91
57250;BME280;43102;52.014;-0.680;2023-04-23T04:08:00;99095;;;12.21;70.91
57250;BME280;43102;52.014;-0.680;2023-04-23T04:09:00;99095;;;12.21;70.91
57250;BME280;43102;52.014;-0.680;2023-04-23T04:10:00;99095;;;12.21;70.91
57250;BME280;43102;52.014;-0.680;2023-04-23T04:11:00;99095;;;12.21;70.91
57250;BME280;43102;52.014;-0.680;2023-04-23T04:12:00;99087;;;12.25;71.10
57250;BME280;43102;52.014;-0.680;2023-04-23T04:13:00;99087;;;12.25;71.10
57250;BME280;43102;52.014;-0.680;2023-04-23T04:14:00;99087;;;12.25;71.10
57250;BME280;43102;52.014;-0.680;2023-04-23T04:15:00;99087;;;12.25;71.10
57250;BME280;43102;52.014;-0.680;2023-04-23T04:16:00;99087;;;12.25;71.10
57250;BME280;43102;52.014;-0.680;2023-04-23T04:17:00;99080;;;12.22;71.16
57250;BME280;43102;52.014;-0.680;2023-04-23T04:18:00;99080;;;12.22;71.16
57250;BME280;43102;52.014;-0.680;2023-04-23T04:19:00;99080;;;12.22;71.16
57250;BME280;43102;52.014;-0.680;2023-04-23T04:20:00;99080;;;12.22;71.16
57250;BME280;43102;52.014;-0.680;2023-04-23T04:21:00;99080;;;12.22;71.16
57250;BME280;43102;52.014;-0.680;2023-04-23T04:22:00;99075;;;12.20;71.68
57250;BME280;43102;52.014;-0.680;2023-04-23T04:23:00;99075;;;12.20;71.68
57250;BME280;43102;52.014;-0.680;2023-04-23T04:24:00;99075;;;12.20;71.68
57250;BME280;43102;52.014;-0.680;2023-04-23T04:25:00;99075;;;12.20;71.68
57250;BME280;43102;52.014;-0.680;2023-04-23T04:26:00;99075;;;12.20;71.68
57250;BME280;43102;52.014;-0.680;2023-04-23T04:27:00;99068;;;12.18;71.24
57250;BME280;43102;52.014;-0.680;2023-04-23T04:28:00;99068;;;12.18;71.24
57250;BME280;43102;52.014;-0.680;2023-04-23T04:29:00;99068;;;12.18;71.24
57250;BME280;43102;52.014;-0.680;2023-04-23T04:30:00;99068;;;12.18;71.24
57250;BME280;43102;52.014;-0.680;2023-04-23T04:31:00;99068;;;12.18;71.24
57250;BME280;43102;52.014;-0.680;2023-04-23T04:32:00;99066;;;12.14;71.04
57250;BME280;43102;52.014;-0.680;2023-04-23T04:33:00;99066;;;12.14;71.04
57250;BME280;43102;52.014;-0.680;2023-04-23T04:34:00;99066;;;12.14;71.04
57250;BME280;43102;52.014;-0.680;2023-04-23T04:35:00;99066;;;12.14;71.04
57250;BME280;43102;52.014;-0.680;2023-04-23T04:36:00;99066;;;12.14;71.04
57250;BME280;43102;52.014;-0.680;2023-04-23T04:37:00;99067;;;12.16;71.41
57250;BME280;43102;52.014;-0.680;2023-04-23T04:38:00;99067;;;12.16;71.41
57250;BME280;43102;52.014;-0.680;2023-04-23T04:39:00;99067;;;12.16;71.41
57250;BME280;43102;52.014;-0.680;2023-04-23T04:40:00;99067;;;12.16;71.41
57250;BME280;43102;52.014;-0.680;2023-04-23T04:41:00;99067;;;12.16;71.41
57250;BME280;43102;52.014;-0.680;2023-04-23T04:42:00;99069;;;12.19;71.04
57250;BME280;43102;52.014;-0.680;2023-04-23T04:43:00;99069;;;12.19;71.04
57250;BME280;43102;52.014;-0.680;2023-04-23T04:44:00;99069;;;12.19;71.04
57250;BME280;43102;52.014;-0.680;2023-04-23T04:45:00;99069;;;12.19;71.04
57250;BME280;43102;52.014;-0.680;2023-04-23T04:46:00;99069;;;12.19;71.04
57250;BME280;43102;52.014;-0.680;2023-04-23T04:47:00;99071;;;12.18;71.10
57250;BME280;43102;52.014;-0.680;2023-04-23T04:48:00;99071;;;12.18;71.10
57250;BME280;43102;52.014;-0.680;2023-04-23T04:49:00;99071;;;12.18;71.10
57250;BME280;43102;52.014;-0.680;2023-04-23T04:50:00;99071;;;12.18;71.10
57250;BME280;43102;52.014;-0.680;2023-04-23T04:51:00;99071;;;12.18;71.10
57250;BME280;43102;52.014;-0.680;2023-04-23T04:52:00;99076;;;12.16;71.50
57250;BME280;43102;52.014;-0.680;2023-04-23T04:53:00;99076;;;12.16;71.50
57250;BME280;43102;52.014;-0.680;2023-04-23T04:54:00;99076;;;12.16;71.50
57250;BME280;43102;52.014;-0.680;2023-04-23T04:55:00;99076;;;12.16;71.50
57250;BME280;43102;52.014;-0.680;2023-04-23T04:56:00;99076;;;12.16;71.50
57250;BME280;43102;52.014;-0.680;2023-04-23T04:57:00;99076;;;12.12;71.30
57250;BME280;43102;52.014;-0.680;2023-04-23T04:58:00;99076;;;12.12;71.30
57250;BME280;43102;52.014;-0.680;2023-04-23T04:59:00;99076;;;12.12;71.30
57250;BME280;43102;52.014;-0.680;2023-04-23T05:00:01;99076;;;12.12;71.30
57250;BME280;43102;52.014;-0.680;2023-04-23T05:01:00;99076;;;12.12;71.30
57250;BME280;43102;52.014;-0.680;2023-04-23T05:02:00;99077;;;12.06;71.36
57250;BME280;43102;52.014;-0.680;2023-04-23T05:03:00;99077;;;12.06;71.36
57250;BME280;43102;52.014;-0.680;2023-04-23T05:04:00;99077;;;12.06;71.36
57250;BME280;43102;52.014;-0.680;2023-04-23T05:05:00;99077;;;12.06;71.36
57250;BME280;43102;52.014;-0.680;2023-04-23T05:06:00;99077;;;12.06;71.36
57250;BME280;43102;52.014;-0.680;2023-04-23T05:07:00;99077;;;12.11;71.06
57250;BME280;43102;52.014;-0.680;2023-04-23T05:08:00;99077;;;12.11;71.06
57250;BME280;43102;52.014;-0.680;2023-04-23T05:09:00;99077;;;12.11;71.06
57250;BME280;43102;52.014;-0.680;2023-04-23T05:10:00;99077;;;12.11;71.06
57250;BME280;43102;52.014;-0.680;2023-04-23T05:11:00;99077;;;12.11;71.06
57250;BME280;43102;52.014;-0.680;2023-04-23T05:12:00;99079;;;12.09;71.20
57250;BME280;43102;52.014;-0.680;2023-04-23T05:13:00;99079;;;12.09;71.20
57250;BME280;43102;52.014;-0.680;2023-04-23T05:14:00;99079;;;12.09;71.20
57250;BME280;43102;52.014;-0.680;2023-04-23T05:15:00;99079;;;12.09;71.20
57250;BME280;43102;52.014;-0.680;2023-04-23T05:16:00;99079;;;12.09;71.20
57250;BME280;43102;52.014;-0.680;2023-04-23T05:17:00;99080;;;12.10;71.04
57250;BME280;43102;52.014;-0.680;2023-04-23T05:18:01;99080;;;12.10;71.04
57250;BME280;43102;52.014;-0.680;2023-04-23T05:19:00;99080;;;12.10;71.04
57250;BME280;43102;52.014;-0.680;2023-04-23T05:20:00;99080;;;12.10;71.04
57250;BME280;43102;52.014;-0.680;2023-04-23T05:21:00;99080;;;12.10;71.04
57250;BME280;43102;52.014;-0.680;2023-04-23T05:22:00;99083;;;12.08;71.66
57250;BME280;43102;52.014;-0.680;2023-04-23T05:23:00;99083;;;12.08;71.66
57250;BME280;43102;52.014;-0.680;2023-04-23T05:24:00;99083;;;12.08;71.66
57250;BME280;43102;52.014;-0.680;2023-04-23T05:25:00;99083;;;12.08;71.66
57250;BME280;43102;52.014;-0.680;2023-04-23T05:26:00;99083;;;12.08;71.66